Aviation Digital Data Service (ADDS)

Output produced by METARs form (0811 UTC 24 May 2018)
found at http://www.aviationweather.gov/adds/metars/
 
LCRA 240750Z 21008KT 9999 FEW070 27/21 Q1012 NOSIG
TAF LCRA 240718Z 2409/2503 18005KT CAVOK 
     BECMG 2409/2412 24015KT 
     TEMPO 2414/2419 27018G28KT 
     BECMG 2418/2421 27005KT
       
LCEN 240750Z 15005KT CAVOK 32/12 Q1011 NOSIG RMK RWY11 14005KT
TAF LCEN 240440Z 2406/2506 28015KT 9999 FEW025 
     TEMPO 2512/2515 FEW025 BKN100
       
LCLK 240800Z 18009KT CAVOK 31/14 Q1011 NOSIG
TAF LCLK 240530Z 2406/2506 30006KT 9999 FEW030 
     BECMG 2407/2411 21016KT 
     BECMG 2416/2420 27007KT
       
LCPH 240800Z 23008KT 190V270 9999 FEW040 26/22 Q1012
TAF LCPH 240530Z 2406/2506 02006KT 9999 FEW025 
     BECMG 2406/2410 28014KT 
     BECMG 2417/2421 35007KT
       
LCRA 240750Z 21008KT 9999 FEW070 27/21 Q1012 NOSIG
TAF LCRA 240718Z 2409/2503 18005KT CAVOK 
     BECMG 2409/2412 24015KT 
     TEMPO 2414/2419 27018G28KT 
     BECMG 2418/2421 27005KT
       
LCLK 240800Z 18009KT CAVOK 31/14 Q1011 NOSIG
TAF LCLK 240530Z 2406/2506 30006KT 9999 FEW030 
     BECMG 2407/2411 21016KT 
     BECMG 2416/2420 27007KT
       
LCPH 240800Z 23008KT 190V270 9999 FEW040 26/22 Q1012
TAF LCPH 240530Z 2406/2506 02006KT 9999 FEW025 
     BECMG 2406/2410 28014KT 
     BECMG 2417/2421 35007KT